createdAt,value
2022-08-18T00:00:00.503Z,1004.19
2022-08-18T00:01:00.700Z,1004.23
2022-08-18T00:02:00.906Z,1004.18
2022-08-18T00:03:14.206Z,1004.19
2022-08-18T00:04:03.075Z,1004.17
2022-08-18T00:05:01.090Z,1004.19
2022-08-18T00:06:01.193Z,1004.17
2022-08-18T00:07:01.323Z,1004.20
2022-08-18T00:08:01.455Z,1004.18
2022-08-18T00:09:01.574Z,1004.15
2022-08-18T00:10:01.712Z,1004.17
2022-08-18T00:11:01.828Z,1004.16
2022-08-18T00:12:01.944Z,1004.13
2022-08-18T00:13:02.073Z,1004.10
2022-08-18T00:14:02.182Z,1004.09
2022-08-18T00:15:02.291Z,1004.13
2022-08-18T00:16:02.402Z,1004.15
2022-08-18T00:17:02.518Z,1004.13
2022-08-18T00:18:02.641Z,1004.12
2022-08-18T00:19:07.099Z,1004.16
2022-08-18T00:20:03.844Z,1004.14
2022-08-18T00:21:02.962Z,1004.13
2022-08-18T00:22:03.082Z,1004.13
2022-08-18T00:23:03.211Z,1004.13
2022-08-18T00:24:03.322Z,1004.12
2022-08-18T00:25:03.440Z,1004.15
2022-08-18T00:26:03.552Z,1004.14
2022-08-18T00:27:03.688Z,1004.13
2022-08-18T00:28:03.807Z,1004.09
2022-08-18T00:29:03.923Z,1004.07
2022-08-18T00:30:04.042Z,1004.05
2022-08-18T00:31:04.165Z,1004.06
2022-08-18T00:32:04.269Z,1004.04
2022-08-18T00:33:04.390Z,1004.02
2022-08-18T00:34:04.502Z,1004.02
2022-08-18T00:35:04.612Z,1003.99
2022-08-18T00:36:04.725Z,1003.98
2022-08-18T00:37:04.852Z,1003.96
2022-08-18T00:38:04.973Z,1003.98
2022-08-18T00:39:05.088Z,1003.93
2022-08-18T00:40:05.281Z,1003.94
2022-08-18T00:41:05.273Z,1003.91
2022-08-18T00:42:05.399Z,1003.92
2022-08-18T00:43:05.521Z,1003.96
2022-08-18T00:44:05.632Z,1003.95
2022-08-18T00:45:05.782Z,1003.94
2022-08-18T00:46:05.893Z,1003.94
2022-08-18T00:47:06.005Z,1003.93
2022-08-18T00:48:06.137Z,1003.95
2022-08-18T00:49:06.265Z,1003.94
2022-08-18T00:50:06.384Z,1003.92
2022-08-18T00:51:07.448Z,1003.88
2022-08-18T00:52:06.561Z,1003.92
2022-08-18T00:53:06.690Z,1003.90
2022-08-18T00:54:06.801Z,1003.95
2022-08-18T00:55:06.912Z,1003.94
2022-08-18T00:56:07.021Z,1003.91
2022-08-18T00:57:07.136Z,1003.93
2022-08-18T00:58:07.276Z,1003.89
2022-08-18T00:59:07.377Z,1003.90
2022-08-18T01:00:07.508Z,1003.87
2022-08-18T01:01:07.723Z,1003.85
2022-08-18T01:02:07.727Z,1003.83
2022-08-18T01:03:07.914Z,1003.86
2022-08-18T01:04:08.034Z,1003.85
2022-08-18T01:05:08.161Z,1003.86
2022-08-18T01:06:08.272Z,1003.85
2022-08-18T01:07:08.386Z,1003.85
2022-08-18T01:08:08.521Z,1003.81
2022-08-18T01:09:08.651Z,1003.83
2022-08-18T01:10:08.760Z,1003.79
2022-08-18T01:11:08.886Z,1003.82
2022-08-18T01:12:39.428Z,1003.80
2022-08-18T01:13:10.085Z,1003.81
2022-08-18T01:14:09.196Z,1003.80
2022-08-18T01:15:09.321Z,1003.81
2022-08-18T01:16:10.379Z,1003.82
2022-08-18T01:17:09.483Z,1003.81
2022-08-18T01:18:09.618Z,1003.82
2022-08-18T01:19:09.737Z,1003.84
2022-08-18T01:20:09.855Z,1003.83
2022-08-18T01:21:09.959Z,1003.84
2022-08-18T01:22:10.083Z,1003.83
2022-08-18T01:23:10.221Z,1003.85
2022-08-18T01:24:10.334Z,1003.84
2022-08-18T01:25:10.450Z,1003.86
2022-08-18T01:26:10.572Z,1003.87
2022-08-18T01:27:10.680Z,1003.86
2022-08-18T01:28:10.811Z,1003.85
2022-08-18T01:29:10.933Z,1003.83
2022-08-18T01:30:11.009Z,1003.85
2022-08-18T01:31:11.122Z,1003.81
2022-08-18T01:32:11.234Z,1003.85
2022-08-18T01:33:11.362Z,1003.86
2022-08-18T01:34:11.426Z,1003.83
2022-08-18T01:35:11.532Z,1003.89
2022-08-18T01:36:11.691Z,1003.91
2022-08-18T01:37:11.802Z,1003.90
2022-08-18T01:38:11.940Z,1003.85
2022-08-18T01:39:12.052Z,1003.90
2022-08-18T01:41:17.421Z,1003.88
2022-08-18T01:41:27.176Z,1003.88
2022-08-18T01:42:13.401Z,1003.87
2022-08-18T01:43:12.483Z,1003.86
2022-08-18T01:44:12.600Z,1003.88
2022-08-18T01:45:12.771Z,1003.88
2022-08-18T01:46:12.765Z,1003.84
2022-08-18T01:47:12.886Z,1003.83
2022-08-18T01:48:12.996Z,1003.84
2022-08-18T01:49:13.122Z,1003.84
2022-08-18T01:50:13.252Z,1003.80
2022-08-18T01:51:13.414Z,1003.80
2022-08-18T01:52:13.528Z,1003.79
2022-08-18T01:53:13.650Z,1003.79
2022-08-18T01:54:13.806Z,1003.77
2022-08-18T01:55:14.774Z,1003.79
2022-08-18T01:56:13.993Z,1003.76
2022-08-18T01:57:14.111Z,1003.73
2022-08-18T01:58:14.236Z,1003.71
2022-08-18T01:59:14.363Z,1003.74
2022-08-18T02:00:14.488Z,1003.76
2022-08-18T02:01:14.671Z,1003.71
2022-08-18T02:02:18.241Z,1003.75
2022-08-18T02:03:14.801Z,1003.74
2022-08-18T02:04:34.414Z,1003.73
2022-08-18T02:05:15.991Z,1003.69
2022-08-18T02:06:15.110Z,1003.68
2022-08-18T02:07:15.300Z,1003.66
2022-08-18T02:08:15.389Z,1003.63
2022-08-18T02:09:15.482Z,1003.64
2022-08-18T02:10:16.774Z,1003.61
2022-08-18T02:11:15.681Z,1003.58
2022-08-18T02:12:15.845Z,1003.59
2022-08-18T02:13:15.970Z,1003.58
2022-08-18T02:14:16.094Z,1003.56
2022-08-18T02:15:16.229Z,1003.56
2022-08-18T02:16:16.340Z,1003.55
2022-08-18T02:17:16.568Z,1003.56
2022-08-18T02:18:39.261Z,1003.55
2022-08-18T02:19:17.603Z,1003.52
2022-08-18T02:20:16.736Z,1003.51
2022-08-18T02:21:19.002Z,1003.49
2022-08-18T02:22:18.070Z,1003.49
2022-08-18T02:23:17.202Z,1003.48
2022-08-18T02:24:17.313Z,1003.51
2022-08-18T02:25:17.480Z,1003.52
2022-08-18T02:26:17.596Z,1003.52
2022-08-18T02:27:17.768Z,1003.50
2022-08-18T02:28:17.883Z,1003.49
2022-08-18T02:29:18.010Z,1003.50
2022-08-18T02:30:18.139Z,1003.48
2022-08-18T02:31:18.254Z,1003.48
2022-08-18T02:32:18.380Z,1003.52
2022-08-18T02:33:18.499Z,1003.54
2022-08-18T02:34:18.640Z,1003.50
2022-08-18T02:35:18.758Z,1003.49
2022-08-18T02:36:18.870Z,1003.50
2022-08-18T02:37:19.001Z,1003.49
2022-08-18T02:38:19.114Z,1003.52
2022-08-18T02:39:19.247Z,1003.50
2022-08-18T02:40:19.454Z,1003.50
2022-08-18T02:41:19.531Z,1003.51
2022-08-18T02:42:19.650Z,1003.53
2022-08-18T02:43:19.782Z,1003.55
2022-08-18T02:44:19.856Z,1003.54
2022-08-18T02:45:20.011Z,1003.52
2022-08-18T02:46:20.134Z,1003.56
2022-08-18T02:47:20.221Z,1003.53
2022-08-18T02:48:21.292Z,1003.56
2022-08-18T02:49:20.479Z,1003.58
2022-08-18T02:50:20.621Z,1003.55
2022-08-18T02:51:20.744Z,1003.53
2022-08-18T02:52:21.828Z,1003.58
2022-08-18T02:53:21.079Z,1003.55
2022-08-18T02:54:21.097Z,1003.59
2022-08-18T02:55:21.234Z,1003.57
2022-08-18T02:56:40.287Z,1003.52
2022-08-18T02:57:22.437Z,1003.53
2022-08-18T02:58:21.555Z,1003.50
2022-08-18T02:59:21.715Z,1003.53
2022-08-18T03:00:21.881Z,1003.52
2022-08-18T03:01:22.055Z,1003.53
2022-08-18T03:02:22.169Z,1003.53
2022-08-18T03:03:22.302Z,1003.52
2022-08-18T03:04:28.168Z,1003.56
2022-08-18T03:05:23.595Z,1003.55
2022-08-18T03:06:22.592Z,1003.56
2022-08-18T03:07:22.717Z,1003.56
2022-08-18T03:08:22.832Z,1003.54
2022-08-18T03:09:22.940Z,1003.50
2022-08-18T03:10:31.436Z,1003.52
2022-08-18T03:11:24.144Z,1003.51
2022-08-18T03:12:23.260Z,1003.53
2022-08-18T03:13:23.399Z,1003.53
2022-08-18T03:14:23.516Z,1003.53
2022-08-18T03:15:23.638Z,1003.56
2022-08-18T03:16:23.824Z,1003.55
2022-08-18T03:17:23.961Z,1003.55
2022-08-18T03:18:24.208Z,1003.55
2022-08-18T03:19:24.245Z,1003.57
2022-08-18T03:20:30.166Z,1003.59
2022-08-18T03:21:25.480Z,1003.61
2022-08-18T03:22:28.033Z,1003.60
2022-08-18T03:23:30.356Z,1003.63
2022-08-18T03:24:24.818Z,1003.62
2022-08-18T03:25:24.934Z,1003.61
2022-08-18T03:26:25.060Z,1003.63
2022-08-18T03:27:25.189Z,1003.64
2022-08-18T03:28:25.584Z,1003.64
2022-08-18T03:29:29.561Z,1003.64
2022-08-18T03:30:26.518Z,1003.63
2022-08-18T03:31:27.921Z,1003.63
2022-08-18T03:32:25.790Z,1003.64
2022-08-18T03:33:25.929Z,1003.63
2022-08-18T03:34:26.101Z,1003.63
2022-08-18T03:35:26.229Z,1003.62
2022-08-18T03:36:26.365Z,1003.62
2022-08-18T03:37:26.508Z,1003.59
2022-08-18T03:38:26.627Z,1003.60
2022-08-18T03:39:26.823Z,1003.59
2022-08-18T03:40:26.933Z,1003.59
2022-08-18T03:41:57.655Z,1003.60
2022-08-18T03:42:28.160Z,1003.60
2022-08-18T03:43:50.693Z,1003.61
2022-08-18T03:44:28.368Z,1003.61
2022-08-18T03:45:27.493Z,1003.64
2022-08-18T03:46:27.615Z,1003.63
2022-08-18T03:47:27.697Z,1003.63
2022-08-18T03:48:27.827Z,1003.61
2022-08-18T03:49:27.975Z,1003.65
2022-08-18T03:50:28.078Z,1003.66
2022-08-18T03:51:35.220Z,1003.65
2022-08-18T03:52:30.018Z,1003.67
2022-08-18T03:53:28.498Z,1003.61
2022-08-18T03:54:28.640Z,1003.63
2022-08-18T03:55:28.762Z,1003.63
2022-08-18T03:56:28.886Z,1003.62
2022-08-18T03:57:29.005Z,1003.63
2022-08-18T03:58:29.108Z,1003.62
2022-08-18T03:59:29.230Z,1003.59
2022-08-18T04:00:29.412Z,1003.60
2022-08-18T04:01:29.552Z,1003.59
2022-08-18T04:02:29.595Z,1003.62
2022-08-18T04:03:29.750Z,1003.64
2022-08-18T04:04:29.869Z,1003.64
2022-08-18T04:05:30.008Z,1003.64
2022-08-18T04:06:30.645Z,1003.65
2022-08-18T04:07:30.230Z,1003.69
2022-08-18T04:08:30.380Z,1003.69
2022-08-18T04:09:30.501Z,1003.71
2022-08-18T04:10:30.646Z,1003.75
2022-08-18T04:11:35.663Z,1003.76
2022-08-18T04:12:31.871Z,1003.76
2022-08-18T04:13:31.019Z,1003.75
2022-08-18T04:14:31.141Z,1003.78
2022-08-18T04:15:31.266Z,1003.84
2022-08-18T04:16:31.410Z,1003.84
2022-08-18T04:17:31.537Z,1003.84
2022-08-18T04:18:31.678Z,1003.85
2022-08-18T04:19:31.809Z,1003.88
2022-08-18T04:20:31.947Z,1003.86
2022-08-18T04:21:32.072Z,1003.87
2022-08-18T04:22:32.191Z,1003.91
2022-08-18T04:23:33.106Z,1003.88
2022-08-18T04:24:33.597Z,1003.85
2022-08-18T04:25:33.120Z,1003.86
2022-08-18T04:26:32.738Z,1003.88
2022-08-18T04:27:32.874Z,1003.84
2022-08-18T04:28:33.037Z,1003.85
2022-08-18T04:29:33.158Z,1003.84
2022-08-18T04:30:33.288Z,1003.88
2022-08-18T04:31:33.414Z,1003.85
2022-08-18T04:32:33.545Z,1003.81
2022-08-18T04:33:33.681Z,1003.79
2022-08-18T04:34:33.821Z,1003.78
2022-08-18T04:35:33.936Z,1003.77
2022-08-18T04:36:34.067Z,1003.78
2022-08-18T04:37:39.760Z,1003.76
2022-08-18T04:38:35.276Z,1003.77
2022-08-18T04:39:34.467Z,1003.77
2022-08-18T04:40:34.490Z,1003.78
2022-08-18T04:41:34.617Z,1003.81
2022-08-18T04:42:34.759Z,1003.80
2022-08-18T04:43:35.856Z,1003.81
2022-08-18T04:44:34.979Z,1003.83
2022-08-18T04:45:35.102Z,1003.87
2022-08-18T04:46:35.238Z,1003.85
2022-08-18T04:47:35.366Z,1003.87
2022-08-18T04:48:35.498Z,1003.88
2022-08-18T04:49:35.637Z,1003.90
2022-08-18T04:50:35.767Z,1003.88
2022-08-18T04:52:36.670Z,1003.87
2022-08-18T04:52:41.252Z,1003.89
2022-08-18T04:53:36.126Z,1003.85
2022-08-18T04:54:36.323Z,1003.82
2022-08-18T04:55:36.428Z,1003.85
2022-08-18T04:56:36.549Z,1003.86
2022-08-18T04:57:36.687Z,1003.87
2022-08-18T04:58:36.814Z,1003.89
2022-08-18T04:59:36.957Z,1003.88
2022-08-18T05:00:37.077Z,1003.90
2022-08-18T05:01:37.241Z,1003.89
2022-08-18T05:02:37.259Z,1003.91
2022-08-18T05:03:37.380Z,1003.92
2022-08-18T05:04:38.469Z,1003.91
2022-08-18T05:05:37.595Z,1003.92
2022-08-18T05:06:37.721Z,1003.94
2022-08-18T05:07:37.837Z,1003.94
2022-08-18T05:08:37.967Z,1003.93
2022-08-18T05:09:41.320Z,1003.92
2022-08-18T05:10:38.217Z,1003.92
2022-08-18T05:11:38.341Z,1003.93
2022-08-18T05:12:38.457Z,1003.97
2022-08-18T05:13:38.984Z,1003.95
2022-08-18T05:14:38.714Z,1003.97
2022-08-18T05:16:06.941Z,1003.91
2022-08-18T05:16:48.298Z,1003.99
2022-08-18T05:17:40.093Z,1003.99
2022-08-18T05:18:39.254Z,1004.02
2022-08-18T05:19:44.182Z,1003.98
2022-08-18T05:20:40.450Z,1003.93
2022-08-18T05:21:39.557Z,1003.96
2022-08-18T05:22:39.681Z,1003.97
2022-08-18T05:23:39.794Z,1003.96
2022-08-18T05:24:39.941Z,1004.03
2022-08-18T05:25:40.050Z,1004.02
2022-08-18T05:26:40.166Z,1004.06
2022-08-18T05:27:40.285Z,1004.04
2022-08-18T05:28:40.395Z,1004.02
2022-08-18T05:29:41.566Z,1004.04
2022-08-18T05:30:41.608Z,1004.05
2022-08-18T05:31:40.709Z,1004.07
2022-08-18T05:32:48.520Z,1004.06
2022-08-18T05:33:41.897Z,1004.07
2022-08-18T05:34:41.013Z,1004.05
2022-08-18T05:35:41.187Z,1004.06
2022-08-18T05:36:41.184Z,1004.06
2022-08-18T05:37:41.295Z,1004.06
2022-08-18T05:38:41.408Z,1004.09
2022-08-18T05:39:41.558Z,1004.09
2022-08-18T05:40:41.666Z,1004.07
2022-08-18T05:41:41.779Z,1004.08
2022-08-18T05:42:41.921Z,1004.08
2022-08-18T05:43:52.186Z,1004.09
2022-08-18T05:44:43.096Z,1004.06
2022-08-18T05:45:42.226Z,1004.08
2022-08-18T05:46:42.341Z,1004.08
2022-08-18T05:47:42.467Z,1004.09
2022-08-18T05:48:43.217Z,1004.10
2022-08-18T05:49:42.679Z,1004.15
2022-08-18T05:50:42.799Z,1004.14
2022-08-18T05:51:42.911Z,1004.12
2022-08-18T05:52:43.016Z,1004.14
2022-08-18T05:53:43.116Z,1004.14
2022-08-18T05:54:43.224Z,1004.12
2022-08-18T05:55:47.629Z,1004.11
2022-08-18T05:56:43.487Z,1004.08
2022-08-18T05:57:43.601Z,1004.10
2022-08-18T05:58:43.705Z,1004.10
2022-08-18T05:59:43.813Z,1004.12
2022-08-18T06:00:43.885Z,1004.14
2022-08-18T06:01:44.046Z,1004.13
2022-08-18T06:02:44.185Z,1004.12
2022-08-18T06:03:45.179Z,1004.14
2022-08-18T06:04:44.345Z,1004.12
2022-08-18T06:05:44.479Z,1004.13
2022-08-18T06:06:47.666Z,1004.14
2022-08-18T06:07:44.815Z,1004.15
2022-08-18T06:08:44.837Z,1004.20
2022-08-18T06:09:44.978Z,1004.23
2022-08-18T06:10:45.089Z,1004.29
2022-08-18T06:11:45.200Z,1004.29
2022-08-18T06:12:47.269Z,1004.31
2022-08-18T06:13:45.425Z,1004.35
2022-08-18T06:14:45.573Z,1004.43
2022-08-18T06:15:45.671Z,1004.45
2022-08-18T06:16:45.837Z,1004.47
2022-08-18T06:17:46.724Z,1004.48
2022-08-18T06:18:46.075Z,1004.48
2022-08-18T06:19:46.210Z,1004.46
2022-08-18T06:20:46.326Z,1004.43
2022-08-18T06:21:46.457Z,1004.39
2022-08-18T06:22:52.399Z,1004.39
2022-08-18T06:23:47.650Z,1004.34
2022-08-18T06:24:46.800Z,1004.35
2022-08-18T06:25:46.924Z,1004.40
2022-08-18T06:26:47.036Z,1004.40
2022-08-18T06:27:47.177Z,1004.42
2022-08-18T06:28:47.199Z,1004.38
2022-08-18T06:29:47.338Z,1004.37
2022-08-18T06:30:47.480Z,1004.30
2022-08-18T06:31:47.598Z,1004.30
2022-08-18T06:32:47.708Z,1004.32
2022-08-18T06:33:47.822Z,1004.31
2022-08-18T06:34:47.974Z,1004.34
2022-08-18T06:35:48.512Z,1004.34
2022-08-18T06:36:48.098Z,1004.34
2022-08-18T06:37:48.265Z,1004.37
2022-08-18T06:38:48.262Z,1004.31
2022-08-18T06:39:48.445Z,1004.30
2022-08-18T06:40:48.434Z,1004.31
2022-08-18T06:41:48.528Z,1004.31
2022-08-18T06:42:48.639Z,1004.35
2022-08-18T06:43:48.775Z,1004.36
2022-08-18T06:44:48.873Z,1004.39
2022-08-18T06:45:48.975Z,1004.42
2022-08-18T06:46:49.068Z,1004.42
2022-08-18T06:47:49.161Z,1004.42
2022-08-18T06:48:49.287Z,1004.41
2022-08-18T06:49:49.386Z,1004.44
2022-08-18T06:50:49.532Z,1004.43
2022-08-18T06:51:49.631Z,1004.41
2022-08-18T06:52:49.710Z,1004.42
2022-08-18T06:53:49.815Z,1004.43
2022-08-18T06:54:51.570Z,1004.45
2022-08-18T06:55:49.967Z,1004.45
2022-08-18T06:56:50.093Z,1004.41
2022-08-18T06:57:50.291Z,1004.42
2022-08-18T06:58:53.186Z,1004.40
2022-08-18T06:59:50.341Z,1004.40
2022-08-18T07:00:50.568Z,1004.40
2022-08-18T07:01:50.556Z,1004.41
2022-08-18T07:02:50.658Z,1004.42
2022-08-18T07:03:50.896Z,1004.38
2022-08-18T07:04:50.855Z,1004.40
2022-08-18T07:05:50.969Z,1004.38
2022-08-18T07:06:51.066Z,1004.39
2022-08-18T07:07:51.222Z,1004.38
2022-08-18T07:08:51.312Z,1004.42
2022-08-18T07:09:51.397Z,1004.38
2022-08-18T07:10:51.578Z,1004.34
2022-08-18T07:11:51.595Z,1004.31
2022-08-18T07:12:51.755Z,1004.32
2022-08-18T07:14:03.600Z,1004.28
2022-08-18T07:14:52.801Z,1004.30
2022-08-18T07:15:51.946Z,1004.29
2022-08-18T07:17:00.106Z,1004.29
2022-08-18T07:17:53.144Z,1004.29
2022-08-18T07:18:52.049Z,1004.28
2022-08-18T07:19:52.175Z,1004.29
2022-08-18T07:20:52.306Z,1004.31
2022-08-18T07:21:52.412Z,1004.31
2022-08-18T07:22:52.533Z,1004.34
2022-08-18T07:24:14.202Z,1004.35
2022-08-18T07:24:53.660Z,1004.37
2022-08-18T07:25:52.811Z,1004.32
2022-08-18T07:26:52.809Z,1004.32
2022-08-18T07:27:53.236Z,1004.32
2022-08-18T07:28:52.931Z,1004.33
2022-08-18T07:29:53.026Z,1004.37
2022-08-18T07:31:15.557Z,1004.35
2022-08-18T07:31:54.179Z,1004.36
2022-08-18T07:32:53.292Z,1004.32
2022-08-18T07:33:53.415Z,1004.37
2022-08-18T07:34:53.607Z,1004.35
2022-08-18T07:35:53.668Z,1004.32
2022-08-18T07:36:53.640Z,1004.38
2022-08-18T07:37:53.832Z,1004.37
2022-08-18T07:38:53.855Z,1004.39
2022-08-18T07:39:54.003Z,1004.39
2022-08-18T07:40:54.036Z,1004.37
2022-08-18T07:41:54.123Z,1004.41
2022-08-18T07:43:02.100Z,1004.40
2022-08-18T07:43:55.284Z,1004.38
2022-08-18T07:44:54.383Z,1004.38
2022-08-18T07:45:54.520Z,1004.37
2022-08-18T07:46:54.604Z,1004.36
2022-08-18T07:47:54.776Z,1004.36
2022-08-18T07:48:54.736Z,1004.35
2022-08-18T07:50:18.259Z,1004.39
2022-08-18T07:50:58.283Z,1004.40
2022-08-18T07:51:55.035Z,1004.40
2022-08-18T07:52:55.128Z,1004.40
2022-08-18T07:53:56.540Z,1004.44
2022-08-18T07:54:55.286Z,1004.40
2022-08-18T07:55:55.405Z,1004.45
2022-08-18T07:56:55.486Z,1004.46
2022-08-18T07:57:55.775Z,1004.44
2022-08-18T07:58:55.634Z,1004.48
2022-08-18T07:59:55.744Z,1004.47
2022-08-18T08:00:59.124Z,1004.50
2022-08-18T08:01:55.962Z,1004.51
2022-08-18T08:02:55.941Z,1004.53
2022-08-18T08:03:56.069Z,1004.53
2022-08-18T08:04:56.154Z,1004.53
2022-08-18T08:05:56.240Z,1004.56
2022-08-18T08:07:23.036Z,1004.58
2022-08-18T08:07:57.397Z,1004.59
2022-08-18T08:08:56.496Z,1004.58
2022-08-18T08:09:56.591Z,1004.61
2022-08-18T08:10:56.701Z,1004.65
2022-08-18T08:11:56.716Z,1004.64
2022-08-18T08:13:08.359Z,1004.68
2022-08-18T08:13:57.891Z,1004.69
2022-08-18T08:14:56.965Z,1004.69
2022-08-18T08:15:57.067Z,1004.72
2022-08-18T08:16:57.179Z,1004.72
2022-08-18T08:17:57.261Z,1004.69
2022-08-18T08:18:57.362Z,1004.68
2022-08-18T08:20:00.645Z,1004.67
2022-08-18T08:20:57.538Z,1004.61
2022-08-18T08:21:57.652Z,1004.63
2022-08-18T08:22:57.766Z,1004.67
2022-08-18T08:23:57.834Z,1004.67
2022-08-18T08:24:57.933Z,1004.66
2022-08-18T08:25:58.041Z,1004.65
2022-08-18T08:26:58.202Z,1004.63
2022-08-18T08:27:58.146Z,1004.62
2022-08-18T08:28:58.180Z,1004.63
2022-08-18T08:29:58.290Z,1004.62
2022-08-18T08:31:13.552Z,1004.69
2022-08-18T08:31:59.438Z,1004.75
2022-08-18T08:32:58.623Z,1004.65
2022-08-18T08:34:01.668Z,1004.69
2022-08-18T08:34:59.647Z,1004.68
2022-08-18T08:35:58.738Z,1004.67
2022-08-18T08:36:58.836Z,1004.65
2022-08-18T08:38:04.808Z,1004.65
2022-08-18T08:38:59.948Z,1004.68
2022-08-18T08:39:59.141Z,1004.68
2022-08-18T08:40:59.159Z,1004.66
2022-08-18T08:42:30.264Z,1004.66
2022-08-18T08:43:00.308Z,1004.68
2022-08-18T08:43:59.436Z,1004.67
2022-08-18T08:44:59.995Z,1004.66
2022-08-18T08:45:59.501Z,1004.66
2022-08-18T08:46:59.457Z,1004.69
2022-08-18T08:48:08.098Z,1004.63
2022-08-18T08:49:00.605Z,1004.61
2022-08-18T08:50:01.046Z,1004.64
2022-08-18T08:50:59.699Z,1004.66
2022-08-18T08:51:59.787Z,1004.62
2022-08-18T08:52:59.863Z,1004.63
2022-08-18T08:53:59.966Z,1004.61
2022-08-18T08:55:00.028Z,1004.64
2022-08-18T08:56:02.458Z,1004.67
2022-08-18T08:57:00.200Z,1004.69
2022-08-18T08:58:00.151Z,1004.64
2022-08-18T08:59:00.261Z,1004.65
2022-08-18T09:00:00.243Z,1004.67
2022-08-18T09:01:00.370Z,1004.62
2022-08-18T09:02:00.550Z,1004.61
2022-08-18T09:03:00.598Z,1004.57
2022-08-18T09:04:00.461Z,1004.57
2022-08-18T09:05:08.418Z,1004.55
2022-08-18T09:06:01.514Z,1004.54
2022-08-18T09:07:00.699Z,1004.52
2022-08-18T09:08:00.635Z,1004.52
2022-08-18T09:09:00.631Z,1004.53
2022-08-18T09:10:00.630Z,1004.50
2022-08-18T09:11:00.732Z,1004.52
2022-08-18T09:12:00.685Z,1004.50
2022-08-18T09:13:00.761Z,1004.52
2022-08-18T09:14:00.864Z,1004.53
2022-08-18T09:15:01.068Z,1004.51
2022-08-18T09:16:01.097Z,1004.49
2022-08-18T09:17:02.117Z,1004.60
2022-08-18T09:18:01.086Z,1004.55
2022-08-18T09:19:01.015Z,1004.59
2022-08-18T09:20:01.234Z,1004.55
2022-08-18T09:21:01.019Z,1004.57
2022-08-18T09:22:01.053Z,1004.54
2022-08-18T09:23:01.165Z,1004.61
2022-08-18T09:24:01.064Z,1004.54
2022-08-18T09:25:01.099Z,1004.47
2022-08-18T09:26:01.114Z,1004.50
2022-08-18T09:27:01.134Z,1004.50
2022-08-18T09:28:10.985Z,1004.51
2022-08-18T09:29:02.129Z,1004.38
2022-08-18T09:30:01.209Z,1004.43
2022-08-18T09:31:01.125Z,1004.34
2022-08-18T09:32:01.083Z,1004.36
2022-08-18T09:33:01.107Z,1004.30
2022-08-18T09:34:06.728Z,1004.33
2022-08-18T09:35:02.116Z,1004.37
2022-08-18T09:36:01.100Z,1004.41
2022-08-18T09:37:00.977Z,1004.34
2022-08-18T09:38:01.015Z,1004.35
2022-08-18T09:39:01.047Z,1004.33
2022-08-18T09:40:11.070Z,1004.33
2022-08-18T09:41:03.453Z,1004.37
2022-08-18T09:42:00.994Z,1004.33
2022-08-18T09:43:02.141Z,1004.35
2022-08-18T09:44:00.936Z,1004.28
2022-08-18T09:45:00.911Z,1004.34
2022-08-18T09:46:00.985Z,1004.26
2022-08-18T09:47:01.357Z,1004.25
2022-08-18T09:48:00.870Z,1004.23
2022-08-18T09:49:00.856Z,1004.25
2022-08-18T09:50:01.829Z,1004.23
2022-08-18T09:51:00.798Z,1004.24
2022-08-18T09:52:08.765Z,1004.21
2022-08-18T09:53:04.700Z,1004.21
2022-08-18T09:54:00.740Z,1004.19
2022-08-18T09:55:01.501Z,1004.16
2022-08-18T09:56:04.829Z,1004.25
2022-08-18T09:57:00.718Z,1004.23
2022-08-18T09:58:00.741Z,1004.23
2022-08-18T09:59:00.709Z,1004.26
2022-08-18T10:00:00.711Z,1004.25
2022-08-18T10:01:00.778Z,1004.29
2022-08-18T10:02:00.668Z,1004.27
2022-08-18T10:03:00.709Z,1004.28
2022-08-18T10:04:00.700Z,1004.29
2022-08-18T10:05:00.738Z,1004.29
2022-08-18T10:06:01.712Z,1004.25
2022-08-18T10:07:00.670Z,1004.26
2022-08-18T10:08:00.666Z,1004.22
2022-08-18T10:09:00.662Z,1004.25
2022-08-18T10:10:00.814Z,1004.21
2022-08-18T10:12:01.488Z,1004.16
2022-08-18T10:13:00.482Z,1004.13
2022-08-18T10:14:00.480Z,1004.09
2022-08-18T10:15:00.403Z,1004.01
2022-08-18T10:16:10.243Z,1003.99
2022-08-18T10:17:23.703Z,1003.92
2022-08-18T10:18:01.277Z,1003.95
2022-08-18T10:19:00.266Z,1003.88
2022-08-18T10:20:00.171Z,1003.90
2022-08-18T10:21:00.076Z,1003.88
2022-08-18T10:22:00.023Z,1003.94
2022-08-18T10:23:00.021Z,1003.98
2022-08-18T10:24:29.782Z,1003.95
2022-08-18T10:25:20.863Z,1003.99
2022-08-18T10:26:04.441Z,1003.99
2022-08-18T10:26:59.890Z,1004.04
2022-08-18T10:27:59.902Z,1004.09
2022-08-18T10:28:59.903Z,1004.17
2022-08-18T10:29:59.922Z,1004.20
2022-08-18T10:31:05.879Z,1004.22
2022-08-18T10:32:00.924Z,1004.25
2022-08-18T10:33:00.333Z,1004.20
2022-08-18T10:33:59.833Z,1004.21
2022-08-18T10:34:59.815Z,1004.14
2022-08-18T10:35:59.792Z,1004.15
2022-08-18T10:36:59.764Z,1004.08
2022-08-18T10:37:59.747Z,1004.07
2022-08-18T10:38:59.713Z,1004.05
2022-08-18T10:39:59.743Z,1004.02
2022-08-18T10:40:59.634Z,1004.04
2022-08-18T10:42:00.546Z,1004.08
2022-08-18T10:42:59.492Z,1004.02
2022-08-18T10:43:59.507Z,1003.97
2022-08-18T10:44:59.455Z,1003.94
2022-08-18T10:46:25.437Z,1003.92
2022-08-18T10:47:00.310Z,1003.89
2022-08-18T10:47:59.243Z,1003.91
2022-08-18T10:48:59.162Z,1003.89
2022-08-18T10:49:59.103Z,1003.84
2022-08-18T10:50:59.045Z,1003.84
2022-08-18T10:52:00.371Z,1003.83
2022-08-18T10:53:24.470Z,1003.78
2022-08-18T10:53:59.732Z,1003.77
2022-08-18T10:54:58.599Z,1003.76
2022-08-18T10:55:58.577Z,1003.75
2022-08-18T10:56:58.472Z,1003.65
2022-08-18T10:57:58.388Z,1003.71
2022-08-18T10:58:58.334Z,1003.68
2022-08-18T10:59:58.276Z,1003.72
2022-08-18T11:00:58.234Z,1003.70
2022-08-18T11:01:58.164Z,1003.72
2022-08-18T11:03:02.569Z,1003.73
2022-08-18T11:03:59.100Z,1003.73
2022-08-18T11:04:59.098Z,1003.68
2022-08-18T11:05:57.786Z,1003.71
2022-08-18T11:06:57.645Z,1003.69
2022-08-18T11:08:58.453Z,1003.65
2022-08-18T11:10:04.888Z,1003.62
2022-08-18T11:11:27.546Z,1003.62
2022-08-18T11:12:00.842Z,1003.53
2022-08-18T11:12:57.452Z,1003.57
2022-08-18T11:13:57.009Z,1003.60
2022-08-18T11:14:56.864Z,1003.64
2022-08-18T11:15:56.758Z,1003.64
2022-08-18T11:16:56.764Z,1003.67
2022-08-18T11:17:56.603Z,1003.62
2022-08-18T11:18:56.475Z,1003.60
2022-08-18T11:19:56.426Z,1003.57
2022-08-18T11:20:56.261Z,1003.59
2022-08-18T11:21:56.260Z,1003.57
2022-08-18T11:23:57.030Z,1003.55
2022-08-18T11:24:55.920Z,1003.55
2022-08-18T11:25:55.906Z,1003.54
2022-08-18T11:26:55.814Z,1003.54
2022-08-18T11:27:55.789Z,1003.53
2022-08-18T11:28:55.784Z,1003.51
2022-08-18T11:29:55.517Z,1003.50
2022-08-18T11:30:55.463Z,1003.45
2022-08-18T11:31:55.416Z,1003.46
2022-08-18T11:32:55.585Z,1003.48
2022-08-18T11:33:55.269Z,1003.51
2022-08-18T11:34:55.215Z,1003.44
2022-08-18T11:35:55.147Z,1003.38
2022-08-18T11:36:55.111Z,1003.58
2022-08-18T11:37:54.961Z,1003.55
2022-08-18T11:38:54.802Z,1003.59
2022-08-18T11:39:54.803Z,1003.53
2022-08-18T11:41:11.549Z,1003.47
2022-08-18T11:41:55.654Z,1003.37
2022-08-18T11:42:54.713Z,1003.38
2022-08-18T11:43:54.353Z,1003.47
2022-08-18T11:44:54.304Z,1003.47
2022-08-18T11:45:54.240Z,1003.50
2022-08-18T11:46:54.190Z,1003.48
2022-08-18T11:47:54.064Z,1003.47
2022-08-18T11:48:54.140Z,1003.41
2022-08-18T11:49:53.982Z,1003.42
2022-08-18T11:50:54.419Z,1003.48
2022-08-18T11:51:53.889Z,1003.45
2022-08-18T11:52:54.572Z,1003.42
2022-08-18T11:53:58.280Z,1003.37
2022-08-18T11:54:54.611Z,1003.29
2022-08-18T11:55:53.520Z,1003.40
2022-08-18T11:56:53.669Z,1003.38
2022-08-18T11:57:53.369Z,1003.39
2022-08-18T11:58:53.324Z,1003.43
2022-08-18T12:00:00.618Z,1003.42
2022-08-18T12:00:54.057Z,1003.43
2022-08-18T12:01:52.992Z,1003.42
2022-08-18T12:02:53.047Z,1003.43
2022-08-18T12:03:52.869Z,1003.44
2022-08-18T12:04:53.034Z,1003.42
2022-08-18T12:06:53.609Z,1003.41
2022-08-18T12:07:57.818Z,1003.41
2022-08-18T12:10:53.339Z,1003.43
2022-08-18T12:11:52.311Z,1003.49